createdAt,value
2018-06-09T00:00:07.146Z,932.9
2018-06-09T00:00:19.696Z,932.83
2018-06-09T00:00:32.719Z,932.84
2018-06-09T00:00:45.775Z,932.83
2018-06-09T00:00:58.849Z,932.88
2018-06-09T00:01:11.415Z,932.86
2018-06-09T00:01:23.982Z,932.88
2018-06-09T00:01:36.550Z,932.85
2018-06-09T00:01:49.551Z,932.88
2018-06-09T00:02:02.123Z,932.83
2018-06-09T00:02:14.645Z,932.85
2018-06-09T00:02:27.656Z,932.82
2018-06-09T00:02:40.237Z,932.85
2018-06-09T00:02:52.356Z,932.87
2018-06-09T00:03:05.337Z,932.89
2018-06-09T00:03:18.301Z,932.88
2018-06-09T00:03:31.273Z,932.86
2018-06-09T00:03:44.210Z,932.86
2018-06-09T00:03:56.770Z,932.88
2018-06-09T00:04:08.857Z,932.9
2018-06-09T00:04:20.942Z,932.88
2018-06-09T00:04:33.960Z,932.88
2018-06-09T00:04:46.031Z,932.87
2018-06-09T00:04:58.147Z,932.9
2018-06-09T00:05:11.144Z,932.89
2018-06-09T00:05:23.696Z,932.91
2018-06-09T00:05:36.668Z,932.92
2018-06-09T00:05:49.238Z,932.94
2018-06-09T00:06:01.299Z,932.94
2018-06-09T00:06:13.811Z,932.94
2018-06-09T00:06:25.870Z,932.92
2018-06-09T00:06:38.877Z,932.93
2018-06-09T00:06:51.866Z,932.94
2018-06-09T00:07:04.383Z,932.94
2018-06-09T00:07:16.507Z,932.91
2018-06-09T00:07:28.606Z,932.93
2018-06-09T00:07:41.630Z,932.91
2018-06-09T00:07:54.645Z,932.92
2018-06-09T00:08:07.137Z,932.92
2018-06-09T00:08:19.186Z,932.9
2018-06-09T00:08:32.169Z,932.91
2018-06-09T00:08:44.716Z,932.9
2018-06-09T00:08:57.685Z,932.91
2018-06-09T00:09:10.227Z,932.9
2018-06-09T00:09:22.723Z,932.91
2018-06-09T00:09:34.771Z,932.91
2018-06-09T00:09:47.724Z,932.92
2018-06-09T00:10:00.690Z,932.91
2018-06-09T00:10:12.733Z,932.89
2018-06-09T00:10:25.281Z,932.95
2018-06-09T00:10:38.242Z,932.9
2018-06-09T00:10:51.261Z,932.94
2018-06-09T00:11:04.288Z,932.92
2018-06-09T00:11:16.834Z,932.93
2018-06-09T00:11:29.361Z,932.9
2018-06-09T00:11:42.403Z,932.95
2018-06-09T00:11:55.421Z,932.96
2018-06-09T00:12:08.450Z,932.97
2018-06-09T00:12:21.471Z,932.99
2018-06-09T00:12:34.052Z,932.99
2018-06-09T00:12:46.559Z,932.99
2018-06-09T00:12:59.163Z,932.94
2018-06-09T00:13:11.674Z,932.99
2018-06-09T00:13:24.164Z,932.95
2018-06-09T00:13:37.118Z,932.99
2018-06-09T00:13:50.120Z,932.98
2018-06-09T00:14:02.657Z,932.96
2018-06-09T00:14:15.178Z,932.96
2018-06-09T00:14:28.180Z,932.96
2018-06-09T00:14:40.741Z,932.97
2018-06-09T00:14:53.783Z,933.02
2018-06-09T00:15:06.819Z,932.97
2018-06-09T00:15:19.767Z,932.98
2018-06-09T00:15:32.759Z,933
2018-06-09T00:15:45.316Z,933
2018-06-09T00:15:58.376Z,933.02
2018-06-09T00:16:10.938Z,933.05
2018-06-09T00:16:22.998Z,932.98
2018-06-09T00:16:35.065Z,933.01
2018-06-09T00:16:47.190Z,932.98
2018-06-09T00:17:00.170Z,933.02
2018-06-09T00:17:12.685Z,933
2018-06-09T00:17:25.726Z,933.02
2018-06-09T00:17:38.297Z,932.99
2018-06-09T00:17:50.824Z,933.01
2018-06-09T00:18:04.621Z,933.04
2018-06-09T00:18:16.661Z,933.04
2018-06-09T00:18:29.675Z,933.06
2018-06-09T00:18:42.670Z,932.99
2018-06-09T00:18:55.173Z,933.03
2018-06-09T00:19:07.764Z,933.01
2018-06-09T00:19:20.795Z,933.01
2018-06-09T00:19:33.467Z,933.02
2018-06-09T00:19:46.549Z,933.08
2018-06-09T00:19:59.573Z,933.06
2018-06-09T00:20:11.180Z,933.05
2018-06-09T00:20:23.785Z,933.02
2018-06-09T00:20:36.318Z,933.09
2018-06-09T00:20:49.316Z,933.05
2018-06-09T00:21:02.355Z,933.01
2018-06-09T00:21:14.000Z,933.06
2018-06-09T00:21:26.494Z,933.07
2018-06-09T00:21:39.503Z,933.03
2018-06-09T00:21:52.447Z,933.06
2018-06-09T00:22:05.492Z,933.05
2018-06-09T00:22:18.519Z,933
2018-06-09T00:22:31.490Z,933.06
2018-06-09T00:22:44.002Z,933.08
2018-06-09T00:22:56.948Z,933.05
2018-06-09T00:23:09.469Z,933.08
2018-06-09T00:23:22.020Z,933.07
2018-06-09T00:23:34.532Z,933.05
2018-06-09T00:23:47.577Z,933.07
2018-06-09T00:24:00.622Z,933.05
2018-06-09T00:24:13.695Z,933.08
2018-06-09T00:24:26.224Z,933.03
2018-06-09T00:24:38.712Z,933.06
2018-06-09T00:24:51.675Z,933.08
2018-06-09T00:25:04.752Z,933.08
2018-06-09T00:25:17.316Z,933.06
2018-06-09T00:25:30.334Z,933.08
2018-06-09T00:25:43.338Z,933.08
2018-06-09T00:25:56.327Z,933.1
2018-06-09T00:26:09.275Z,933.09
2018-06-09T00:26:22.296Z,933.07
2018-06-09T00:26:35.331Z,933.1
2018-06-09T00:26:48.348Z,933.1
2018-06-09T00:27:01.402Z,933.12
2018-06-09T00:27:13.958Z,933.11
2018-06-09T00:27:26.471Z,933.11
2018-06-09T00:27:39.488Z,933.13
2018-06-09T00:27:52.026Z,933.11
2018-06-09T00:28:04.530Z,933.13
2018-06-09T00:28:17.474Z,933.12
2018-06-09T00:28:30.062Z,933.13
2018-06-09T00:28:43.155Z,933.14
2018-06-09T00:28:56.203Z,933.14
2018-06-09T00:29:09.232Z,933.15
2018-06-09T00:29:22.187Z,933.17
2018-06-09T00:29:34.694Z,933.18
2018-06-09T00:29:47.708Z,933.17
2018-06-09T00:30:00.342Z,933.18
2018-06-09T00:30:13.301Z,933.19
2018-06-09T00:30:25.384Z,933.18
2018-06-09T00:30:37.472Z,933.18
2018-06-09T00:30:49.548Z,933.18
2018-06-09T00:31:02.145Z,933.22
2018-06-09T00:31:14.694Z,933.19
2018-06-09T00:31:27.240Z,933.22
2018-06-09T00:31:40.283Z,933.19
2018-06-09T00:31:52.352Z,933.21
2018-06-09T00:32:04.894Z,933.2
2018-06-09T00:32:17.903Z,933.22
2018-06-09T00:32:30.937Z,933.21
2018-06-09T00:32:43.979Z,933.15
2018-06-09T00:32:57.000Z,933.22
2018-06-09T00:33:10.253Z,933.24
2018-06-09T00:33:23.233Z,933.22
2018-06-09T00:33:35.269Z,933.23
2018-06-09T00:33:47.773Z,933.23
2018-06-09T00:34:00.796Z,933.23
2018-06-09T00:34:13.851Z,933.19
2018-06-09T00:34:26.432Z,933.23
2018-06-09T00:34:38.529Z,933.2
2018-06-09T00:34:51.098Z,933.23
2018-06-09T00:35:04.101Z,933.18
2018-06-09T00:35:17.099Z,933.19
2018-06-09T00:35:30.102Z,933.21
2018-06-09T00:35:42.696Z,933.21
2018-06-09T00:35:55.866Z,933.17
2018-06-09T00:36:08.036Z,933.17
2018-06-09T00:36:20.067Z,933.17
2018-06-09T00:36:33.102Z,933.19
2018-06-09T00:36:45.210Z,933.17
2018-06-09T00:36:58.166Z,933.17
2018-06-09T00:37:11.154Z,933.15
2018-06-09T00:37:24.127Z,933.16
2018-06-09T00:37:37.099Z,933.19
2018-06-09T00:37:49.645Z,933.18
2018-06-09T00:38:02.663Z,933.25
2018-06-09T00:38:15.260Z,933.21
2018-06-09T00:38:28.261Z,933.21
2018-06-09T00:38:41.309Z,933.2
2018-06-09T00:38:53.399Z,933.18
2018-06-09T00:39:06.431Z,933.2
2018-06-09T00:39:19.447Z,933.2
2018-06-09T00:39:32.426Z,933.18
2018-06-09T00:39:44.970Z,933.21
2018-06-09T00:39:57.439Z,933.2
2018-06-09T00:40:09.954Z,933.24
2018-06-09T00:40:22.599Z,933.19
2018-06-09T00:40:34.634Z,933.19
2018-06-09T00:40:47.117Z,933.18
2018-06-09T00:41:00.128Z,933.2
2018-06-09T00:41:12.624Z,933.22
2018-06-09T00:41:25.187Z,933.2
2018-06-09T00:41:37.733Z,933.24
2018-06-09T00:41:50.233Z,933.22
2018-06-09T00:42:03.224Z,933.21
2018-06-09T00:42:15.757Z,933.23
2018-06-09T00:42:28.798Z,933.23
2018-06-09T00:42:41.374Z,933.21
2018-06-09T00:42:54.412Z,933.23
2018-06-09T00:43:06.918Z,933.2
2018-06-09T00:43:18.975Z,933.22
2018-06-09T00:43:32.075Z,933.27
2018-06-09T00:43:45.013Z,933.2
2018-06-09T00:43:58.002Z,933.2
2018-06-09T00:44:10.052Z,933.2
2018-06-09T00:44:22.098Z,933.22
2018-06-09T00:44:33.700Z,933.21
2018-06-09T00:44:46.724Z,933.2
2018-06-09T00:44:59.717Z,933.22
2018-06-09T00:45:12.730Z,933.21
2018-06-09T00:45:25.239Z,933.21
2018-06-09T00:45:38.203Z,933.21
2018-06-09T00:45:51.217Z,933.22
2018-06-09T00:46:03.722Z,933.2
2018-06-09T00:46:16.226Z,933.17
2018-06-09T00:46:28.289Z,933.22
2018-06-09T00:46:41.288Z,933.2
2018-06-09T00:46:52.925Z,933.2
2018-06-09T00:47:05.461Z,933.19
2018-06-09T00:47:18.005Z,933.19
2018-06-09T00:47:30.518Z,933.2
2018-06-09T00:47:43.489Z,933.21
2018-06-09T00:47:56.420Z,933.26
2018-06-09T00:48:08.436Z,933.23
2018-06-09T00:48:22.254Z,933.17
2018-06-09T00:48:35.291Z,933.24
2018-06-09T00:48:47.365Z,933.22
2018-06-09T00:48:59.840Z,933.19
2018-06-09T00:49:12.890Z,933.2
2018-06-09T00:49:25.894Z,933.23
2018-06-09T00:49:38.419Z,933.24
2018-06-09T00:49:50.444Z,933.24
2018-06-09T00:50:03.441Z,933.19
2018-06-09T00:50:16.437Z,933.24
2018-06-09T00:50:29.037Z,933.24
2018-06-09T00:50:41.572Z,933.25
2018-06-09T00:50:54.553Z,933.2
2018-06-09T00:51:07.590Z,933.25
2018-06-09T00:51:20.130Z,933.21
2018-06-09T00:51:33.127Z,933.23
2018-06-09T00:51:46.117Z,933.22
2018-06-09T00:51:58.664Z,933.27
2018-06-09T00:52:10.740Z,933.24
2018-06-09T00:52:23.272Z,933.22
2018-06-09T00:52:36.265Z,933.23
2018-06-09T00:52:48.829Z,933.24
2018-06-09T00:53:01.394Z,933.24
2018-06-09T00:53:12.960Z,933.27
2018-06-09T00:53:25.432Z,933.3
2018-06-09T00:53:37.502Z,933.3
2018-06-09T00:53:50.480Z,933.26
2018-06-09T00:54:03.449Z,933.27
2018-06-09T00:54:16.466Z,933.28
2018-06-09T00:54:28.542Z,933.28
2018-06-09T00:54:41.529Z,933.27
2018-06-09T00:54:54.095Z,933.28
2018-06-09T00:55:06.693Z,933.27
2018-06-09T00:55:19.695Z,933.3
2018-06-09T00:55:32.206Z,933.24
2018-06-09T00:55:45.144Z,933.31
2018-06-09T00:55:57.681Z,933.28
2018-06-09T00:56:09.671Z,933.33
2018-06-09T00:56:22.704Z,933.28
2018-06-09T00:56:35.253Z,933.3
2018-06-09T00:56:48.285Z,933.31
2018-06-09T00:57:01.342Z,933.32
2018-06-09T00:57:13.864Z,933.29
2018-06-09T00:57:26.849Z,933.31
2018-06-09T00:57:38.929Z,933.36
2018-06-09T00:57:51.496Z,933.35
2018-06-09T00:58:04.555Z,933.37
2018-06-09T00:58:17.038Z,933.35
2018-06-09T00:58:30.028Z,933.35
2018-06-09T00:58:42.537Z,933.37
2018-06-09T00:58:55.527Z,933.38
2018-06-09T00:59:08.109Z,933.36
2018-06-09T00:59:20.601Z,933.36
2018-06-09T00:59:33.664Z,933.37
2018-06-09T00:59:46.187Z,933.36
2018-06-09T00:59:59.241Z,933.39
2018-06-09T01:00:11.809Z,933.37
2018-06-09T01:00:24.392Z,933.38
2018-06-09T01:00:37.416Z,933.35
2018-06-09T01:00:49.514Z,933.37
2018-06-09T01:01:01.574Z,933.33
2018-06-09T01:01:14.087Z,933.33
2018-06-09T01:01:26.166Z,933.33
2018-06-09T01:01:39.203Z,933.36
2018-06-09T01:01:52.166Z,933.36
2018-06-09T01:02:05.179Z,933.36
2018-06-09T01:02:18.115Z,933.34
2018-06-09T01:02:30.678Z,933.36
2018-06-09T01:02:43.671Z,933.28
2018-06-09T01:02:56.645Z,933.31
2018-06-09T01:03:08.194Z,933.31
2018-06-09T01:03:20.889Z,933.28
2018-06-09T01:03:33.402Z,933.3
2018-06-09T01:03:46.445Z,933.28
2018-06-09T01:03:58.952Z,933.28
2018-06-09T01:04:12.030Z,933.28
2018-06-09T01:04:25.043Z,933.26
2018-06-09T01:04:37.508Z,933.26
2018-06-09T01:04:50.537Z,933.29
2018-06-09T01:05:03.075Z,933.29
2018-06-09T01:05:14.696Z,933.25
2018-06-09T01:05:27.233Z,933.27
2018-06-09T01:05:39.729Z,933.26
2018-06-09T01:05:52.697Z,933.27
2018-06-09T01:06:05.699Z,933.27
2018-06-09T01:06:18.696Z,933.27
2018-06-09T01:06:30.698Z,933.27
2018-06-09T01:06:43.681Z,933.3
2018-06-09T01:06:56.195Z,933.24
2018-06-09T01:07:08.295Z,933.26
2018-06-09T01:07:21.301Z,933.31
2018-06-09T01:07:34.299Z,933.26
2018-06-09T01:07:46.793Z,933.29
2018-06-09T01:07:59.791Z,933.27
2018-06-09T01:08:12.288Z,933.31
2018-06-09T01:08:25.344Z,933.28
2018-06-09T01:08:37.893Z,933.29
2018-06-09T01:08:50.870Z,933.31
2018-06-09T01:09:03.387Z,933.29
2018-06-09T01:09:16.368Z,933.31
2018-06-09T01:09:28.919Z,933.29
2018-06-09T01:09:41.856Z,933.31
2018-06-09T01:09:54.437Z,933.27
2018-06-09T01:10:06.993Z,933.31
2018-06-09T01:10:19.985Z,933.29
2018-06-09T01:10:32.478Z,933.37
2018-06-09T01:10:45.511Z,933.34
2018-06-09T01:10:58.482Z,933.34
2018-06-09T01:11:10.115Z,933.34
2018-06-09T01:11:23.155Z,933.34
2018-06-09T01:11:35.713Z,933.3
2018-06-09T01:11:48.627Z,933.32
2018-06-09T01:12:00.659Z,933.36
2018-06-09T01:12:13.208Z,933.34
2018-06-09T01:12:25.767Z,933.35
2018-06-09T01:12:38.793Z,933.31
2018-06-09T01:12:51.289Z,933.33
2018-06-09T01:13:04.267Z,933.37
2018-06-09T01:13:16.335Z,933.32
2018-06-09T01:13:29.368Z,933.32
2018-06-09T01:13:41.920Z,933.35
2018-06-09T01:13:54.475Z,933.33
2018-06-09T01:14:06.953Z,933.38
2018-06-09T01:14:19.443Z,933.31
2018-06-09T01:14:32.462Z,933.3
2018-06-09T01:14:45.463Z,933.34
2018-06-09T01:14:57.979Z,933.28
2018-06-09T01:15:10.558Z,933.25
2018-06-09T01:15:23.570Z,933.33
2018-06-09T01:15:36.097Z,933.31
2018-06-09T01:15:49.093Z,933.26
2018-06-09T01:16:01.614Z,933.3
2018-06-09T01:16:14.143Z,933.27
2018-06-09T01:16:27.153Z,933.26
2018-06-09T01:16:39.683Z,933.3
2018-06-09T01:16:52.703Z,933.32
2018-06-09T01:17:05.243Z,933.32
2018-06-09T01:17:17.305Z,933.33
2018-06-09T01:17:30.303Z,933.3
2018-06-09T01:17:41.884Z,933.3
2018-06-09T01:17:53.969Z,933.31
2018-06-09T01:18:06.952Z,933.33
2018-06-09T01:18:19.040Z,933.3
2018-06-09T01:18:32.972Z,933.33
2018-06-09T01:18:45.502Z,933.3
2018-06-09T01:18:58.496Z,933.33
2018-06-09T01:19:11.017Z,933.38
2018-06-09T01:19:23.523Z,933.36
2018-06-09T01:19:36.058Z,933.37
2018-06-09T01:19:48.134Z,933.41
2018-06-09T01:20:01.131Z,933.43
2018-06-09T01:20:13.693Z,933.37
2018-06-09T01:20:26.684Z,933.42
2018-06-09T01:20:38.305Z,933.37
2018-06-09T01:20:51.327Z,933.4
2018-06-09T01:21:04.415Z,933.39
2018-06-09T01:21:16.954Z,933.43
2018-06-09T01:21:29.477Z,933.42
2018-06-09T01:21:42.485Z,933.39
2018-06-09T01:21:55.032Z,933.46
2018-06-09T01:22:08.047Z,933.45
2018-06-09T01:22:19.677Z,933.43
2018-06-09T01:22:32.221Z,933.41
2018-06-09T01:22:45.241Z,933.42
2018-06-09T01:22:58.253Z,933.41
2018-06-09T01:23:10.334Z,933.42
2018-06-09T01:23:22.847Z,933.39
2018-06-09T01:23:35.465Z,933.42
2018-06-09T01:23:48.420Z,933.41
2018-06-09T01:24:01.466Z,933.39
2018-06-09T01:24:14.003Z,933.43
2018-06-09T01:24:26.550Z,933.39
2018-06-09T01:24:39.029Z,933.39
2018-06-09T01:24:51.510Z,933.37
2018-06-09T01:25:04.116Z,933.37
2018-06-09T01:25:17.175Z,933.37
2018-06-09T01:25:30.217Z,933.4
2018-06-09T01:25:42.772Z,933.41
2018-06-09T01:25:55.309Z,933.38
2018-06-09T01:26:08.286Z,933.39
2018-06-09T01:26:21.303Z,933.39
2018-06-09T01:26:33.818Z,933.34
2018-06-09T01:26:46.335Z,933.38
2018-06-09T01:26:59.320Z,933.4
2018-06-09T01:27:12.272Z,933.37
2018-06-09T01:27:25.276Z,933.35
2018-06-09T01:27:38.273Z,933.35
2018-06-09T01:27:50.811Z,933.38
2018-06-09T01:28:03.810Z,933.39
2018-06-09T01:28:16.356Z,933.36
2018-06-09T01:28:28.881Z,933.4
2018-06-09T01:28:41.899Z,933.38
2018-06-09T01:28:54.852Z,933.37
2018-06-09T01:29:07.908Z,933.38
2018-06-09T01:29:20.497Z,933.39
2018-06-09T01:29:33.063Z,933.41
2018-06-09T01:29:45.587Z,933.37
2018-06-09T01:29:58.567Z,933.38
2018-06-09T01:30:10.613Z,933.41
2018-06-09T01:30:23.138Z,933.42
2018-06-09T01:30:36.125Z,933.43
2018-06-09T01:30:49.142Z,933.4
2018-06-09T01:31:00.759Z,933.42
2018-06-09T01:31:12.884Z,933.43
2018-06-09T01:31:25.870Z,933.43
2018-06-09T01:31:38.867Z,933.42
2018-06-09T01:31:51.390Z,933.42
2018-06-09T01:32:02.969Z,933.43
2018-06-09T01:32:15.971Z,933.45
2018-06-09T01:32:29.005Z,933.43
2018-06-09T01:32:42.038Z,933.42
2018-06-09T01:32:55.124Z,933.4
2018-06-09T01:33:08.119Z,933.41
2018-06-09T01:33:20.691Z,933.46
2018-06-09T01:33:33.016Z,933.42
2018-06-09T01:33:46.013Z,933.42
2018-06-09T01:33:58.530Z,933.44
2018-06-09T01:34:11.514Z,933.44
2018-06-09T01:34:24.561Z,933.45
2018-06-09T01:34:37.568Z,933.4
2018-06-09T01:34:50.558Z,933.41
2018-06-09T01:35:02.620Z,933.39
2018-06-09T01:35:15.607Z,933.43
2018-06-09T01:35:28.585Z,933.39
2018-06-09T01:35:40.635Z,933.39
2018-06-09T01:35:53.156Z,933.35
2018-06-09T01:36:06.170Z,933.37
2018-06-09T01:36:18.705Z,933.37
2018-06-09T01:36:31.239Z,933.37
2018-06-09T01:36:43.760Z,933.39
2018-06-09T01:36:55.802Z,933.36
2018-06-09T01:37:07.403Z,933.39
2018-06-09T01:37:20.480Z,933.37
2018-06-09T01:37:33.425Z,933.37
2018-06-09T01:37:46.430Z,933.36
2018-06-09T01:37:58.977Z,933.4
2018-06-09T01:38:10.528Z,933.4
2018-06-09T01:38:23.516Z,933.36
2018-06-09T01:38:36.016Z,933.37
2018-06-09T01:38:48.536Z,933.37
2018-06-09T01:39:01.511Z,933.38
2018-06-09T01:39:14.496Z,933.38
2018-06-09T01:39:27.471Z,933.39
2018-06-09T01:39:40.520Z,933.35
2018-06-09T01:39:53.543Z,933.34
2018-06-09T01:40:06.520Z,933.34
2018-06-09T01:40:19.024Z,933.36
2018-06-09T01:40:31.538Z,933.36
2018-06-09T01:40:43.643Z,933.4
2018-06-09T01:40:56.630Z,933.39
2018-06-09T01:41:08.676Z,933.38
2018-06-09T01:41:20.280Z,933.38
2018-06-09T01:41:32.790Z,933.38
2018-06-09T01:41:45.333Z,933.38
2018-06-09T01:41:58.359Z,933.39
2018-06-09T01:42:09.988Z,933.4
2018-06-09T01:42:22.545Z,933.42
2018-06-09T01:42:35.123Z,933.39
2018-06-09T01:42:47.725Z,933.34
2018-06-09T01:43:00.774Z,933.39
2018-06-09T01:43:12.861Z,933.4
2018-06-09T01:43:25.918Z,933.36
2018-06-09T01:43:38.900Z,933.38
2018-06-09T01:43:51.419Z,933.33
2018-06-09T01:44:04.442Z,933.37
2018-06-09T01:44:16.996Z,933.36
2018-06-09T01:44:30.023Z,933.3
2018-06-09T01:44:42.509Z,933.37
2018-06-09T01:44:55.528Z,933.34
2018-06-09T01:45:08.059Z,933.34
2018-06-09T01:45:20.523Z,933.31
2018-06-09T01:45:33.508Z,933.31
2018-06-09T01:45:46.021Z,933.27
2018-06-09T01:45:58.944Z,933.35
2018-06-09T01:46:11.450Z,933.34
2018-06-09T01:46:23.994Z,933.34
2018-06-09T01:46:36.539Z,933.33
2018-06-09T01:46:49.559Z,933.3
2018-06-09T01:47:02.540Z,933.28
2018-06-09T01:47:15.520Z,933.3
2018-06-09T01:47:28.120Z,933.32
2018-06-09T01:47:41.138Z,933.3
2018-06-09T01:47:54.205Z,933.3
2018-06-09T01:48:06.797Z,933.28
2018-06-09T01:48:18.827Z,933.3
2018-06-09T01:48:31.865Z,933.28
2018-06-09T01:48:45.423Z,933.27
2018-06-09T01:48:58.427Z,933.28
2018-06-09T01:49:11.002Z,933.28
2018-06-09T01:49:23.963Z,933.3
2018-06-09T01:49:36.512Z,933.31
2018-06-09T01:49:49.049Z,933.31
2018-06-09T01:50:01.600Z,933.28
2018-06-09T01:50:14.566Z,933.29
2018-06-09T01:50:26.633Z,933.32
2018-06-09T01:50:39.650Z,933.28
2018-06-09T01:50:52.585Z,933.27
2018-06-09T01:51:05.570Z,933.28
2018-06-09T01:51:18.115Z,933.27
2018-06-09T01:51:30.184Z,933.31
2018-06-09T01:51:43.124Z,933.28
2018-06-09T01:51:55.686Z,933.27
2018-06-09T01:52:07.801Z,933.25
2018-06-09T01:52:20.356Z,933.29
2018-06-09T01:52:33.318Z,933.25
2018-06-09T01:52:46.336Z,933.23
2018-06-09T01:52:58.856Z,933.28
2018-06-09T01:53:10.936Z,933.28
2018-06-09T01:53:23.947Z,933.28
2018-06-09T01:53:36.889Z,933.28
2018-06-09T01:53:49.983Z,933.27
2018-06-09T01:54:02.510Z,933.25
2018-06-09T01:54:15.481Z,933.27
2018-06-09T01:54:28.011Z,933.23
2018-06-09T01:54:41.054Z,933.24
2018-06-09T01:54:54.100Z,933.24
2018-06-09T01:55:07.144Z,933.25
2018-06-09T01:55:19.655Z,933.26
2018-06-09T01:55:32.130Z,933.24
2018-06-09T01:55:44.662Z,933.24
2018-06-09T01:55:57.175Z,933.26
2018-06-09T01:56:10.211Z,933.24
2018-06-09T01:56:22.338Z,933.26
2018-06-09T01:56:35.382Z,933.23
2018-06-09T01:56:47.961Z,933.26
2018-06-09T01:57:00.969Z,933.25
2018-06-09T01:57:13.533Z,933.26
2018-06-09T01:57:26.502Z,933.25
2018-06-09T01:57:39.453Z,933.23
2018-06-09T01:57:51.528Z,933.25
2018-06-09T01:58:04.035Z,933.24
2018-06-09T01:58:16.612Z,933.22
2018-06-09T01:58:28.652Z,933.18
2018-06-09T01:58:41.686Z,933.2
2018-06-09T01:58:54.207Z,933.19
2018-06-09T01:59:06.743Z,933.22
2018-06-09T01:59:19.284Z,933.2
2018-06-09T01:59:31.799Z,933.2
2018-06-09T01:59:43.849Z,933.19
2018-06-09T01:59:55.892Z,933.21
2018-06-09T02:00:08.930Z,933.16
2018-06-09T02:00:21.487Z,933.22
2018-06-09T02:00:34.014Z,933.2
2018-06-09T02:00:47.045Z,933.25
2018-06-09T02:00:59.615Z,933.22
2018-06-09T02:01:12.141Z,933.22
2018-06-09T02:01:24.220Z,933.22
2018-06-09T02:01:37.243Z,933.21
2018-06-09T02:01:49.787Z,933.19
2018-06-09T02:02:02.786Z,933.22
2018-06-09T02:02:15.328Z,933.25
2018-06-09T02:02:27.890Z,933.22
2018-06-09T02:02:40.459Z,933.25
2018-06-09T02:02:53.433Z,933.24
2018-06-09T02:03:05.954Z,933.25
2018-06-09T02:03:18.512Z,933.21
2018-06-09T02:03:31.057Z,933.27
2018-06-09T02:03:44.248Z,933.24
2018-06-09T02:03:57.243Z,933.24
2018-06-09T02:04:09.817Z,933.24
2018-06-09T02:04:22.363Z,933.24
2018-06-09T02:04:35.365Z,933.25
2018-06-09T02:04:48.393Z,933.26
2018-06-09T02:05:00.508Z,933.29
2018-06-09T02:05:12.609Z,933.29
2018-06-09T02:05:25.078Z,933.28
2018-06-09T02:05:38.100Z,933.23
2018-06-09T02:05:51.085Z,933.26
2018-06-09T02:06:04.110Z,933.24
2018-06-09T02:06:16.673Z,933.29
2018-06-09T02:06:29.658Z,933.27
2018-06-09T02:06:42.697Z,933.31
2018-06-09T02:06:55.673Z,933.26
2018-06-09T02:07:07.728Z,933.27
2018-06-09T02:07:20.707Z,933.28
2018-06-09T02:07:33.206Z,933.3
2018-06-09T02:07:46.209Z,933.29
2018-06-09T02:07:59.218Z,933.31
2018-06-09T02:08:11.262Z,933.29
2018-06-09T02:08:24.298Z,933.29
2018-06-09T02:08:36.849Z,933.31
2018-06-09T02:08:49.439Z,933.31
2018-06-09T02:09:02.441Z,933.27
2018-06-09T02:09:15.447Z,933.3
2018-06-09T02:09:28.025Z,933.27
2018-06-09T02:09:40.517Z,933.25
2018-06-09T02:09:53.467Z,933.25
2018-06-09T02:10:05.522Z,933.25
2018-06-09T02:10:18.557Z,933.26
2018-06-09T02:10:31.616Z,933.28
2018-06-09T02:10:44.613Z,933.25
2018-06-09T02:10:57.638Z,933.25
2018-06-09T02:11:10.613Z,933.25
2018-06-09T02:11:23.118Z,933.22
2018-06-09T02:11:35.669Z,933.2
2018-06-09T02:11:48.243Z,933.21
2018-06-09T02:12:01.268Z,933.21
2018-06-09T02:12:13.754Z,933.23
2018-06-09T02:12:26.242Z,933.23
2018-06-09T02:12:39.221Z,933.23
2018-06-09T02:12:52.194Z,933.21
2018-06-09T02:13:04.242Z,933.25
2018-06-09T02:13:17.251Z,933.23
2018-06-09T02:13:29.345Z,933.21
2018-06-09T02:13:42.290Z,933.21
2018-06-09T02:13:55.381Z,933.21
2018-06-09T02:14:08.335Z,933.2
2018-06-09T02:14:21.342Z,933.21
2018-06-09T02:14:34.360Z,933.22
2018-06-09T02:14:47.284Z,933.25
2018-06-09T02:15:00.263Z,933.22
2018-06-09T02:15:13.235Z,933.2
2018-06-09T02:15:25.711Z,933.21
2018-06-09T02:15:38.706Z,933.22
2018-06-09T02:15:51.199Z,933.22
2018-06-09T02:16:03.752Z,933.18
2018-06-09T02:16:16.244Z,933.2
2018-06-09T02:16:28.290Z,933.18
2018-06-09T02:16:41.211Z,933.21
2018-06-09T02:16:53.277Z,933.22
2018-06-09T02:17:05.797Z,933.23
2018-06-09T02:17:18.298Z,933.22
2018-06-09T02:17:30.828Z,933.2
2018-06-09T02:17:43.829Z,933.2
2018-06-09T02:17:55.431Z,933.23
2018-06-09T02:18:08.422Z,933.17
2018-06-09T02:18:21.421Z,933.17
2018-06-09T02:18:34.409Z,933.19
2018-06-09T02:18:46.524Z,933.17
2018-06-09T02:19:00.299Z,933.2
2018-06-09T02:19:12.850Z,933.2
2018-06-09T02:19:25.343Z,933.18
2018-06-09T02:19:37.460Z,933.2
2018-06-09T02:19:50.003Z,933.2
2018-06-09T02:20:02.508Z,933.19
2018-06-09T02:20:15.512Z,933.16
2018-06-09T02:20:28.066Z,933.18
2018-06-09T02:20:41.064Z,933.21
2018-06-09T02:20:53.622Z,933.2
2018-06-09T02:21:06.634Z,933.22
2018-06-09T02:21:19.164Z,933.21
2018-06-09T02:21:31.225Z,933.18
2018-06-09T02:21:43.722Z,933.22
2018-06-09T02:21:56.729Z,933.19
2018-06-09T02:22:09.261Z,933.2
2018-06-09T02:22:21.815Z,933.18
2018-06-09T02:22:34.347Z,933.17
2018-06-09T02:22:46.417Z,933.14
2018-06-09T02:22:59.455Z,933.23
2018-06-09T02:23:11.105Z,933.18
2018-06-09T02:23:23.189Z,933.2
2018-06-09T02:23:35.269Z,933.18
2018-06-09T02:23:47.743Z,933.21
2018-06-09T02:24:00.688Z,933.22
2018-06-09T02:24:13.209Z,933.23
2018-06-09T02:24:25.715Z,933.23
2018-06-09T02:24:37.308Z,933.23
2018-06-09T02:24:50.329Z,933.21
2018-06-09T02:25:02.396Z,933.2
2018-06-09T02:25:14.463Z,933.19
2018-06-09T02:25:27.459Z,933.18
2018-06-09T02:25:39.506Z,933.21
2018-06-09T02:25:51.994Z,933.17
2018-06-09T02:26:04.082Z,933.22
2018-06-09T02:26:17.148Z,933.25
2018-06-09T02:26:29.224Z,933.19
2018-06-09T02:26:41.758Z,933.23
2018-06-09T02:26:54.809Z,933.22
2018-06-09T02:27:06.862Z,933.24
2018-06-09T02:27:19.818Z,933.25
2018-06-09T02:27:32.340Z,933.23
2018-06-09T02:27:44.876Z,933.26
2018-06-09T02:27:57.402Z,933.2
2018-06-09T02:28:10.021Z,933.24
2018-06-09T02:28:22.109Z,933.23
2018-06-09T02:28:35.122Z,933.23
2018-06-09T02:28:47.647Z,933.25
2018-06-09T02:28:59.694Z,933.19
2018-06-09T02:29:12.254Z,933.22
2018-06-09T02:29:24.836Z,933.24
2018-06-09T02:29:36.945Z,933.26
2018-06-09T02:29:49.886Z,933.27
2018-06-09T02:30:02.474Z,933.27
2018-06-09T02:30:15.437Z,933.27
2018-06-09T02:30:28.423Z,933.21
2018-06-09T02:30:40.454Z,933.25
2018-06-09T02:30:53.473Z,933.26
2018-06-09T02:31:05.505Z,933.28
2018-06-09T02:31:18.034Z,933.23
2018-06-09T02:31:30.565Z,933.25
2018-06-09T02:31:42.223Z,933.24
2018-06-09T02:31:55.243Z,933.22
2018-06-09T02:32:06.833Z,933.25
2018-06-09T02:32:19.878Z,933.27
2018-06-09T02:32:32.964Z,933.21
2018-06-09T02:32:45.975Z,933.25
2018-06-09T02:32:58.923Z,933.24
2018-06-09T02:33:11.429Z,933.24
2018-06-09T02:33:23.047Z,933.2
2018-06-09T02:33:36.038Z,933.23
2018-06-09T02:33:48.556Z,933.22
2018-06-09T02:34:02.240Z,933.27
2018-06-09T02:34:15.251Z,933.22
2018-06-09T02:34:27.777Z,933.24
2018-06-09T02:34:40.836Z,933.25
2018-06-09T02:34:53.362Z,933.25
2018-06-09T02:35:05.893Z,933.26
2018-06-09T02:35:17.919Z,933.23
2018-06-09T02:35:30.925Z,933.25
2018-06-09T02:35:43.905Z,933.22
2018-06-09T02:35:56.915Z,933.25
2018-06-09T02:36:09.904Z,933.24
2018-06-09T02:36:22.907Z,933.22
2018-06-09T02:36:35.889Z,933.23
2018-06-09T02:36:48.455Z,933.24
2018-06-09T02:37:00.974Z,933.24
2018-06-09T02:37:14.048Z,933.23
2018-06-09T02:37:26.544Z,933.23
2018-06-09T02:37:39.564Z,933.2
2018-06-09T02:37:52.599Z,933.24
2018-06-09T02:38:05.709Z,933.22
2018-06-09T02:38:18.735Z,933.18
2018-06-09T02:38:31.750Z,933.16
2018-06-09T02:38:44.326Z,933.2